createdAt,value
2019-03-10T00:00:55.341Z,5.63
2019-03-10T00:03:26.516Z,4.57
2019-03-10T00:05:57.392Z,4.30
2019-03-10T00:08:28.419Z,4.60
2019-03-10T00:10:59.525Z,4.33
2019-03-10T00:13:30.300Z,4.47
2019-03-10T00:16:02.251Z,4.27
2019-03-10T00:18:33.133Z,4.37
2019-03-10T00:21:03.998Z,4.80
2019-03-10T00:23:35.070Z,3.80
2019-03-10T00:26:05.948Z,4.00
2019-03-10T00:28:36.813Z,4.00
2019-03-10T00:31:07.866Z,4.47
2019-03-10T00:33:38.732Z,4.27
2019-03-10T00:36:09.846Z,4.37
2019-03-10T00:38:58.787Z,4.47
2019-03-10T00:41:53.507Z,4.40
2019-03-10T00:45:06.630Z,4.37
2019-03-10T00:47:54.462Z,4.00
2019-03-10T00:50:59.143Z,4.33
2019-03-10T00:53:29.923Z,4.60
2019-03-10T00:56:01.032Z,4.13
2019-03-10T00:58:32.122Z,3.97
2019-03-10T01:01:02.906Z,4.23
2019-03-10T01:03:33.838Z,4.43
2019-03-10T01:06:04.924Z,4.27
2019-03-10T01:08:36.023Z,4.60
2019-03-10T01:11:06.879Z,4.30
2019-03-10T01:13:38.025Z,4.57
2019-03-10T01:16:09.302Z,4.27
2019-03-10T01:18:40.897Z,4.20
2019-03-10T01:21:12.789Z,4.53
2019-03-10T01:23:43.718Z,4.13
2019-03-10T01:26:15.000Z,4.43
2019-03-10T01:28:45.883Z,4.77
2019-03-10T01:31:22.571Z,4.30
2019-03-10T01:34:26.833Z,4.60
2019-03-10T01:36:58.111Z,4.03
2019-03-10T01:39:29.154Z,4.23
2019-03-10T01:42:00.104Z,4.30
2019-03-10T01:44:30.888Z,4.60
2019-03-10T01:47:01.920Z,4.57
2019-03-10T01:49:32.934Z,4.70
2019-03-10T01:52:03.995Z,4.53
2019-03-10T01:54:34.766Z,4.30
2019-03-10T01:57:05.591Z,3.70
2019-03-10T01:59:36.648Z,5.13
2019-03-10T02:02:07.505Z,3.87
2019-03-10T02:04:38.497Z,3.87
2019-03-10T02:07:09.388Z,4.20
2019-03-10T02:09:40.467Z,4.33
2019-03-10T02:12:11.286Z,4.30
2019-03-10T02:14:42.117Z,4.20
2019-03-10T02:17:13.273Z,4.17
2019-03-10T02:19:44.109Z,4.13
2019-03-10T02:22:14.949Z,3.60
2019-03-10T02:24:45.712Z,4.57
2019-03-10T02:27:16.796Z,4.00
2019-03-10T02:29:47.569Z,3.70
2019-03-10T02:32:18.576Z,4.17
2019-03-10T02:34:50.848Z,4.10
2019-03-10T02:37:22.009Z,4.07
2019-03-10T02:39:52.867Z,3.97
2019-03-10T02:42:23.738Z,4.40
2019-03-10T02:44:55.109Z,3.87
2019-03-10T02:47:26.885Z,4.00
2019-03-10T02:49:58.225Z,4.30
2019-03-10T02:52:29.518Z,4.20
2019-03-10T02:55:01.004Z,4.20
2019-03-10T02:57:31.736Z,3.70
2019-03-10T03:00:02.844Z,4.20
2019-03-10T03:02:34.436Z,3.70
2019-03-10T03:05:05.947Z,3.67
2019-03-10T03:07:37.346Z,4.53
2019-03-10T03:10:10.388Z,4.03
2019-03-10T03:12:41.296Z,3.93
2019-03-10T03:15:12.736Z,3.57
2019-03-10T03:17:44.086Z,3.70
2019-03-10T03:20:14.916Z,3.37
2019-03-10T03:22:45.947Z,2.87
2019-03-10T03:25:17.013Z,3.67
2019-03-10T03:27:47.820Z,4.57
2019-03-10T03:30:18.940Z,3.23
2019-03-10T03:32:50.110Z,3.30
2019-03-10T03:36:00.274Z,2.90
2019-03-10T03:38:37.093Z,2.80
2019-03-10T03:41:13.566Z,2.93
2019-03-10T03:43:44.579Z,3.40
2019-03-10T03:46:15.744Z,3.40
2019-03-10T03:48:46.572Z,3.53
2019-03-10T03:51:17.638Z,3.97
2019-03-10T03:53:48.414Z,3.70
2019-03-10T03:56:19.380Z,4.30
2019-03-10T03:58:50.444Z,4.47
2019-03-10T04:01:27.824Z,4.20
2019-03-10T04:03:58.830Z,4.07
2019-03-10T04:06:29.818Z,4.50
2019-03-10T04:09:00.927Z,4.47
2019-03-10T04:11:33.217Z,4.73
2019-03-10T04:14:04.276Z,4.90
2019-03-10T04:16:35.106Z,6.63
2019-03-10T04:19:05.864Z,8.00
2019-03-10T04:21:37.075Z,6.00
2019-03-10T04:24:07.873Z,5.73
2019-03-10T04:26:38.932Z,5.40
2019-03-10T04:29:09.908Z,5.10
2019-03-10T04:31:40.640Z,4.63
2019-03-10T04:34:11.380Z,4.60
2019-03-10T04:36:42.879Z,4.60
2019-03-10T04:39:13.887Z,4.93
2019-03-10T04:41:44.879Z,4.80
2019-03-10T04:44:15.643Z,4.60
2019-03-10T04:46:46.401Z,5.27
2019-03-10T04:49:17.234Z,4.70
2019-03-10T04:51:48.219Z,4.80
2019-03-10T04:54:30.682Z,4.70
2019-03-10T04:57:12.274Z,5.03
2019-03-10T04:59:43.136Z,4.33
2019-03-10T05:02:13.964Z,4.60
2019-03-10T05:04:44.763Z,4.40
2019-03-10T05:07:16.753Z,4.80
2019-03-10T05:09:47.588Z,4.30
2019-03-10T05:12:18.577Z,4.50
2019-03-10T05:14:49.331Z,4.00
2019-03-10T05:17:20.076Z,4.40
2019-03-10T05:19:51.219Z,4.93
2019-03-10T05:22:22.187Z,4.20
2019-03-10T05:24:53.475Z,3.57
2019-03-10T05:27:24.708Z,4.30
2019-03-10T05:29:55.982Z,3.70
2019-03-10T05:32:26.741Z,3.83
2019-03-10T05:34:58.051Z,3.83
2019-03-10T05:37:28.817Z,3.70
2019-03-10T05:39:59.565Z,3.77
2019-03-10T05:42:30.630Z,3.40
2019-03-10T05:45:01.384Z,3.40
2019-03-10T05:47:32.125Z,3.20
2019-03-10T05:50:03.042Z,3.63
2019-03-10T05:52:34.278Z,3.23
2019-03-10T05:55:06.057Z,3.40
2019-03-10T05:57:37.054Z,2.77
2019-03-10T06:00:08.039Z,2.60
2019-03-10T06:02:39.105Z,3.07
2019-03-10T06:05:10.176Z,3.10
2019-03-10T06:07:40.933Z,2.67
2019-03-10T06:10:11.695Z,2.83
2019-03-10T06:12:42.466Z,2.80
2019-03-10T06:15:13.789Z,3.13
2019-03-10T06:17:44.749Z,3.70
2019-03-10T06:20:15.756Z,3.50
2019-03-10T06:22:46.735Z,3.23
2019-03-10T06:25:17.981Z,3.10
2019-03-10T06:27:48.755Z,3.80
2019-03-10T06:30:19.839Z,3.83
2019-03-10T06:32:51.334Z,3.00
2019-03-10T06:35:22.349Z,3.30
2019-03-10T06:37:53.086Z,3.40
2019-03-10T06:40:31.567Z,3.70
2019-03-10T06:42:56.777Z,3.60
2019-03-10T06:45:27.537Z,3.70
2019-03-10T06:47:58.291Z,3.43
2019-03-10T06:50:29.355Z,3.27
2019-03-10T06:53:00.094Z,3.27
2019-03-10T06:55:30.854Z,3.53
2019-03-10T06:58:01.834Z,3.70
2019-03-10T07:00:32.597Z,3.70
2019-03-10T07:03:03.571Z,3.60
2019-03-10T07:05:34.353Z,3.93
2019-03-10T07:08:05.536Z,4.00
2019-03-10T07:10:36.545Z,4.33
2019-03-10T07:13:07.815Z,4.27
2019-03-10T07:15:38.592Z,4.30
2019-03-10T07:18:09.520Z,4.30
2019-03-10T07:20:40.541Z,4.50
2019-03-10T07:23:14.143Z,3.97
2019-03-10T07:25:44.910Z,4.10
2019-03-10T07:28:32.067Z,4.30
2019-03-10T07:31:20.844Z,4.20
2019-03-10T07:34:05.046Z,4.00
2019-03-10T07:36:48.609Z,3.93
2019-03-10T07:39:26.216Z,4.10
2019-03-10T07:42:14.375Z,3.63
2019-03-10T07:45:03.188Z,3.50
2019-03-10T07:47:51.387Z,3.30
2019-03-10T07:50:47.332Z,3.43
2019-03-10T07:53:35.724Z,3.47
2019-03-10T07:56:24.240Z,3.33
2019-03-10T07:59:13.995Z,3.40
2019-03-10T08:01:51.099Z,3.00
2019-03-10T08:04:40.932Z,3.00
2019-03-10T08:07:24.343Z,2.90
2019-03-10T08:10:04.047Z,3.30
2019-03-10T08:12:50.783Z,3.10
2019-03-10T08:15:39.325Z,2.83
2019-03-10T08:18:27.606Z,3.10
2019-03-10T08:21:08.415Z,2.77
2019-03-10T08:23:54.422Z,3.30
2019-03-10T08:26:44.274Z,2.90
2019-03-10T08:29:43.364Z,2.90
2019-03-10T08:32:28.306Z,3.17
2019-03-10T08:35:21.146Z,2.83
2019-03-10T08:38:08.797Z,2.90
2019-03-10T08:40:55.848Z,2.90
2019-03-10T08:43:39.139Z,2.60
2019-03-10T08:46:31.441Z,2.90
2019-03-10T08:49:16.522Z,2.50
2019-03-10T08:51:55.223Z,2.87
2019-03-10T08:54:58.313Z,2.70
2019-03-10T08:57:57.255Z,2.80
2019-03-10T09:00:46.554Z,2.60
2019-03-10T09:03:24.856Z,2.50
2019-03-10T09:06:15.484Z,2.60
2019-03-10T09:09:05.458Z,2.80
2019-03-10T09:11:50.460Z,2.67
2019-03-10T09:14:40.060Z,2.80
2019-03-10T09:17:45.551Z,2.40
2019-03-10T09:20:44.500Z,2.70
2019-03-10T09:23:22.901Z,2.70
2019-03-10T09:26:09.935Z,2.67
2019-03-10T09:29:05.468Z,2.50
2019-03-10T09:31:53.895Z,2.40
2019-03-10T09:34:42.189Z,2.60
2019-03-10T09:37:44.040Z,2.50
2019-03-10T09:40:33.901Z,2.30
2019-03-10T09:43:32.338Z,1.93
2019-03-10T09:46:10.083Z,1.60
2019-03-10T09:49:04.146Z,1.70
2019-03-10T09:51:47.334Z,1.40
2019-03-10T09:54:47.089Z,1.30
2019-03-10T09:57:25.038Z,1.47
2019-03-10T10:00:20.852Z,1.30
2019-03-10T10:03:01.307Z,1.50
2019-03-10T10:05:54.210Z,1.47
2019-03-10T10:08:34.450Z,1.50
2019-03-10T10:11:33.527Z,1.40
2019-03-10T10:14:23.563Z,1.40
2019-03-10T10:17:22.847Z,1.20
2019-03-10T10:20:12.686Z,1.50
2019-03-10T10:22:59.747Z,1.50
2019-03-10T10:25:43.232Z,1.50
2019-03-10T10:28:23.633Z,1.40
2019-03-10T10:31:13.916Z,1.30
2019-03-10T10:34:22.602Z,1.33
2019-03-10T10:37:10.909Z,1.70
2019-03-10T10:40:01.080Z,1.60
2019-03-10T10:42:49.394Z,1.57
2019-03-10T10:45:46.054Z,1.40
2019-03-10T10:48:38.472Z,1.60
2019-03-10T10:51:40.123Z,1.30
2019-03-10T10:54:18.531Z,1.33
2019-03-10T10:57:06.714Z,1.40
2019-03-10T10:59:54.740Z,1.33
2019-03-10T11:02:44.672Z,1.30
2019-03-10T11:05:28.353Z,1.20
2019-03-10T11:08:21.521Z,1.27
2019-03-10T11:11:10.418Z,1.33
2019-03-10T11:14:06.864Z,1.07
2019-03-10T11:16:54.233Z,1.30
2019-03-10T11:19:40.296Z,1.20
2019-03-10T11:22:33.988Z,1.20
2019-03-10T11:25:36.247Z,1.30
2019-03-10T11:28:24.558Z,1.20
2019-03-10T11:31:14.053Z,1.40
2019-03-10T11:34:03.952Z,1.20
2019-03-10T11:36:52.713Z,1.20
2019-03-10T11:39:51.303Z,1.50
2019-03-10T11:42:50.413Z,1.30
2019-03-10T11:45:38.988Z,1.20
2019-03-10T11:48:19.393Z,1.10
2019-03-10T11:51:08.052Z,1.10
2019-03-10T11:54:01.118Z,1.00
2019-03-10T11:56:42.852Z,1.27
2019-03-10T11:59:24.153Z,1.13
2019-03-10T12:02:15.929Z,1.50
2019-03-10T12:04:51.173Z,1.03
2019-03-10T12:07:37.563Z,1.20
2019-03-10T12:10:09.172Z,1.40
2019-03-10T12:12:40.023Z,1.30
2019-03-10T12:15:11.256Z,1.20
2019-03-10T12:17:42.978Z,1.30
2019-03-10T12:20:14.169Z,1.33
2019-03-10T12:22:45.486Z,1.30
2019-03-10T12:25:16.241Z,1.80
2019-03-10T12:27:47.368Z,1.73
2019-03-10T12:30:18.327Z,1.70
2019-03-10T12:32:49.362Z,1.67
2019-03-10T12:35:20.522Z,1.70
2019-03-10T12:37:51.791Z,1.60
2019-03-10T12:40:22.642Z,1.70
2019-03-10T12:42:53.633Z,1.67
2019-03-10T12:45:25.485Z,1.23
2019-03-10T12:47:56.571Z,1.50
2019-03-10T12:50:27.645Z,1.43
2019-03-10T12:52:58.891Z,1.70
2019-03-10T12:55:29.665Z,1.67
2019-03-10T12:58:00.730Z,1.60
2019-03-10T13:00:31.566Z,1.40
2019-03-10T13:03:02.862Z,1.70
2019-03-10T13:05:34.014Z,1.40
2019-03-10T13:08:05.133Z,1.40
2019-03-10T13:10:36.211Z,1.70
2019-03-10T13:13:07.313Z,1.50
2019-03-10T13:15:38.671Z,1.87
2019-03-10T13:18:09.639Z,1.70
2019-03-10T13:20:40.951Z,1.67
2019-03-10T13:23:11.931Z,1.63
2019-03-10T13:25:43.186Z,1.97
2019-03-10T13:28:15.005Z,2.00
2019-03-10T13:30:45.839Z,1.80
2019-03-10T13:33:16.841Z,1.70
2019-03-10T13:35:48.662Z,2.10
2019-03-10T13:38:19.684Z,1.90
2019-03-10T13:40:50.689Z,2.30
2019-03-10T13:43:21.534Z,2.10
2019-03-10T13:45:52.537Z,2.20
2019-03-10T13:48:23.432Z,2.20
2019-03-10T13:50:54.511Z,2.90
2019-03-10T13:53:25.347Z,2.47
2019-03-10T13:55:57.597Z,2.60
2019-03-10T13:58:28.363Z,3.10
2019-03-10T14:00:59.439Z,2.90
2019-03-10T14:03:30.501Z,3.30
2019-03-10T14:06:01.487Z,3.87
2019-03-10T14:08:32.461Z,3.60
2019-03-10T14:11:03.555Z,3.97
2019-03-10T14:13:34.556Z,3.30
2019-03-10T14:16:05.405Z,3.50
2019-03-10T14:18:36.245Z,3.40
2019-03-10T14:21:07.093Z,3.33
2019-03-10T14:23:38.335Z,3.90
2019-03-10T14:26:09.138Z,3.77
2019-03-10T14:28:40.145Z,4.77
2019-03-10T14:31:11.970Z,3.70
2019-03-10T14:33:43.033Z,3.90
2019-03-10T14:36:14.303Z,4.70
2019-03-10T14:38:45.310Z,4.17
2019-03-10T14:41:16.216Z,3.97
2019-03-10T14:43:46.980Z,4.63
2019-03-10T14:46:17.883Z,4.80
2019-03-10T14:48:48.759Z,4.00
2019-03-10T14:51:19.533Z,3.67
2019-03-10T14:53:50.601Z,3.37
2019-03-10T14:56:21.369Z,3.80
2019-03-10T14:58:52.342Z,4.40
2019-03-10T15:01:23.117Z,4.57
2019-03-10T15:03:53.957Z,3.00
2019-03-10T15:06:24.742Z,3.17
2019-03-10T15:08:55.893Z,2.87
2019-03-10T15:11:27.178Z,3.03
2019-03-10T15:13:57.951Z,4.37
2019-03-10T15:16:28.741Z,3.90
2019-03-10T15:18:59.756Z,3.70
2019-03-10T15:21:30.796Z,3.90
2019-03-10T15:24:01.874Z,3.53
2019-03-10T15:26:32.657Z,2.77
2019-03-10T15:29:03.417Z,3.03
2019-03-10T15:31:34.424Z,3.13
2019-03-10T15:34:05.483Z,3.03
2019-03-10T15:36:36.261Z,3.00
2019-03-10T15:39:07.110Z,3.63
2019-03-10T15:41:38.811Z,4.63
2019-03-10T15:44:09.930Z,5.00
2019-03-10T15:46:40.715Z,4.70
2019-03-10T15:49:11.888Z,4.37
2019-03-10T15:55:01.191Z,3.30
2019-03-10T15:57:35.961Z,3.30
2019-03-10T16:00:11.330Z,3.17
2019-03-10T16:02:42.701Z,2.67
2019-03-10T16:05:13.909Z,3.57
2019-03-10T16:07:44.876Z,2.50
2019-03-10T16:10:16.208Z,2.87
2019-03-10T16:12:49.543Z,3.23
2019-03-10T16:15:20.540Z,2.37
2019-03-10T16:17:51.427Z,2.60
2019-03-10T16:20:23.289Z,2.30
2019-03-10T16:22:55.548Z,2.17
2019-03-10T16:25:26.372Z,2.30
2019-03-10T16:27:57.225Z,3.10
2019-03-10T16:30:28.092Z,3.47
2019-03-10T16:32:59.011Z,5.17
2019-03-10T16:35:29.834Z,3.67
2019-03-10T16:38:00.813Z,3.77
2019-03-10T16:40:31.635Z,5.17
2019-03-10T16:43:02.816Z,3.23
2019-03-10T16:45:34.062Z,8.87
2019-03-10T16:48:04.961Z,2.50
2019-03-10T16:50:36.046Z,3.40
2019-03-10T16:53:06.940Z,2.17
2019-03-10T16:55:38.015Z,2.60
2019-03-10T16:58:09.132Z,2.47
2019-03-10T17:00:40.205Z,2.33
2019-03-10T17:03:11.083Z,2.30
2019-03-10T17:05:42.239Z,2.40
2019-03-10T17:08:13.444Z,3.07
2019-03-10T17:10:44.643Z,1.80
2019-03-10T17:13:15.454Z,2.10
2019-03-10T17:15:46.323Z,1.97
2019-03-10T17:18:17.586Z,2.30
2019-03-10T17:20:48.614Z,2.30
2019-03-10T17:23:19.425Z,2.00
2019-03-10T17:25:50.272Z,1.90
2019-03-10T17:28:21.382Z,1.87
2019-03-10T17:30:52.585Z,2.00
2019-03-10T17:33:23.471Z,2.00
2019-03-10T17:35:54.585Z,2.00
2019-03-10T17:38:25.459Z,1.70
2019-03-10T17:40:56.410Z,2.33
2019-03-10T17:43:27.768Z,2.33
2019-03-10T17:45:59.216Z,2.20
2019-03-10T17:48:30.173Z,2.00
2019-03-10T17:51:01.005Z,1.60
2019-03-10T17:53:33.098Z,1.90
2019-03-10T17:56:04.032Z,1.70
2019-03-10T17:58:35.574Z,2.37
2019-03-10T18:01:06.552Z,2.90
2019-03-10T18:03:37.645Z,1.70
2019-03-10T18:06:08.572Z,1.80
2019-03-10T18:08:39.630Z,2.30
2019-03-10T18:11:10.482Z,1.90
2019-03-10T18:13:41.340Z,1.90
2019-03-10T18:16:12.196Z,2.50
2019-03-10T18:18:43.294Z,2.53
2019-03-10T18:21:14.153Z,1.90
2019-03-10T18:23:45.316Z,2.40
2019-03-10T18:26:16.228Z,2.60
2019-03-10T18:28:48.144Z,2.10
2019-03-10T18:31:19.254Z,2.10
2019-03-10T18:33:50.281Z,2.30
2019-03-10T18:36:21.233Z,1.87
2019-03-10T18:38:52.723Z,1.97
2019-03-10T18:41:23.729Z,1.97
2019-03-10T18:43:54.600Z,2.10
2019-03-10T18:46:25.855Z,2.23
2019-03-10T18:48:56.648Z,2.00
2019-03-10T18:51:27.524Z,2.10
2019-03-10T18:53:58.618Z,2.40
2019-03-10T18:56:29.389Z,2.57
2019-03-10T18:59:00.537Z,2.23
2019-03-10T19:01:31.413Z,2.53
2019-03-10T19:04:02.495Z,2.37
2019-03-10T19:06:33.340Z,2.13
2019-03-10T19:09:05.579Z,3.50
2019-03-10T19:11:38.017Z,4.10
2019-03-10T19:14:09.136Z,2.53
2019-03-10T19:16:40.486Z,2.80
2019-03-10T19:19:11.954Z,2.90
2019-03-10T19:21:42.712Z,4.23
2019-03-10T19:24:16.134Z,3.90
2019-03-10T19:26:47.238Z,3.20
2019-03-10T19:29:18.624Z,2.63
2019-03-10T19:31:50.020Z,4.30
2019-03-10T19:34:21.476Z,3.17
2019-03-10T19:36:57.054Z,2.57
2019-03-10T19:39:25.284Z,2.03
2019-03-10T19:41:56.802Z,2.17
2019-03-10T19:44:27.954Z,1.60
2019-03-10T19:46:58.886Z,1.80
2019-03-10T19:49:29.933Z,2.30
2019-03-10T19:52:01.684Z,1.90
2019-03-10T19:54:32.956Z,1.63
2019-03-10T19:57:04.519Z,2.00
2019-03-10T19:59:35.495Z,1.90
2019-03-10T20:02:06.582Z,1.83
2019-03-10T20:04:37.628Z,1.70
2019-03-10T20:07:08.699Z,1.80
2019-03-10T20:09:39.488Z,2.27
2019-03-10T20:12:10.657Z,1.80
2019-03-10T20:14:41.862Z,1.87
2019-03-10T20:17:12.716Z,1.83
2019-03-10T20:19:44.103Z,2.53
2019-03-10T20:22:15.173Z,2.10
2019-03-10T20:24:46.074Z,2.13
2019-03-10T20:27:17.748Z,2.00
2019-03-10T20:29:48.834Z,2.00
2019-03-10T20:32:19.766Z,2.00
2019-03-10T20:34:50.888Z,1.90
2019-03-10T20:37:21.740Z,2.13
2019-03-10T20:39:52.871Z,2.40
2019-03-10T20:42:23.726Z,2.00
2019-03-10T20:44:54.869Z,1.90
2019-03-10T20:47:25.719Z,1.80
2019-03-10T20:49:56.791Z,1.80
2019-03-10T20:52:27.639Z,1.93
2019-03-10T20:54:58.826Z,2.40
2019-03-10T20:57:29.694Z,2.30
2019-03-10T21:00:01.248Z,3.60
2019-03-10T21:02:33.639Z,2.50
2019-03-10T21:05:05.238Z,2.47
2019-03-10T21:07:36.557Z,2.40
2019-03-10T21:10:08.806Z,2.50
2019-03-10T21:12:42.734Z,2.40
2019-03-10T21:15:14.626Z,3.00
2019-03-10T21:17:45.574Z,2.37
2019-03-10T21:20:17.178Z,2.40
2019-03-10T21:22:48.335Z,2.50
2019-03-10T21:25:20.241Z,2.80
2019-03-10T21:27:51.175Z,2.60
2019-03-10T21:30:23.077Z,2.17
2019-03-10T21:32:54.900Z,2.40
2019-03-10T21:35:26.972Z,3.20
2019-03-10T21:37:58.043Z,2.27
2019-03-10T21:40:28.920Z,2.50
2019-03-10T21:43:00.081Z,2.40
2019-03-10T21:45:31.251Z,2.97
2019-03-10T21:48:02.375Z,7.37
2019-03-10T21:50:33.173Z,3.93
2019-03-10T21:53:04.165Z,2.30
2019-03-10T21:55:35.355Z,1.90
2019-03-10T21:58:06.281Z,1.77
2019-03-10T22:00:37.489Z,1.70
2019-03-10T22:03:08.281Z,2.07
2019-03-10T22:05:39.070Z,2.40
2019-03-10T22:08:10.122Z,2.57
2019-03-10T22:10:41.225Z,2.60
2019-03-10T22:13:13.218Z,2.40
2019-03-10T22:15:44.094Z,2.43
2019-03-10T22:18:15.097Z,2.00
2019-03-10T22:20:46.362Z,2.30
2019-03-10T22:23:17.376Z,2.00
2019-03-10T22:25:48.402Z,2.40
2019-03-10T22:28:19.518Z,2.30
2019-03-10T22:30:50.645Z,2.50
2019-03-10T22:33:21.743Z,2.50
2019-03-10T22:35:52.619Z,2.63
2019-03-10T22:38:23.732Z,2.23
2019-03-10T22:40:54.761Z,2.60
2019-03-10T22:43:25.890Z,2.80
2019-03-10T22:45:56.991Z,3.00
2019-03-10T22:48:28.082Z,3.00
2019-03-10T22:50:58.878Z,2.70
2019-03-10T22:53:29.724Z,3.47
2019-03-10T22:56:00.762Z,3.23
2019-03-10T22:58:31.554Z,3.13
2019-03-10T23:01:02.435Z,2.80
2019-03-10T23:03:35.127Z,3.00
2019-03-10T23:06:06.231Z,3.27
2019-03-10T23:08:37.247Z,3.43
2019-03-10T23:11:08.652Z,3.30
2019-03-10T23:13:39.514Z,3.20
2019-03-10T23:16:10.414Z,3.43
2019-03-10T23:18:41.197Z,2.97
2019-03-10T23:21:12.072Z,3.17
2019-03-10T23:23:43.222Z,2.90
2019-03-10T23:26:14.246Z,3.30
2019-03-10T23:28:45.333Z,3.00
2019-03-10T23:31:16.455Z,3.37
2019-03-10T23:33:47.480Z,3.50
2019-03-10T23:36:18.807Z,3.70
2019-03-10T23:38:49.689Z,3.50
2019-03-10T23:41:20.558Z,3.43
2019-03-10T23:43:51.584Z,3.77
2019-03-10T23:46:22.805Z,3.53
2019-03-10T23:48:53.855Z,4.70
2019-03-10T23:51:24.956Z,4.47
2019-03-10T23:53:55.738Z,3.50
2019-03-10T23:56:26.606Z,3.40
2019-03-10T23:58:57.577Z,2.90
